Latest Weather Observations for Shepparton

IDV60801

Issued at 1:35 pm EDT Thursday 27 November 2014 (issued every 30 minutes, with the page automatically refreshed every 10 minutes)

About weather observations | Map of weather stations | Latest weather observations for VIC | Other Formats
Station Details ID: 081125 Name: SHEPPARTON AIRPORT Lat: -36.43 Lon: 145.39 Height: 113.9 m
Data from the previous 72 hours. | See also: Recent months at Shepparton
Date/Time
EDT
Temp
°C
App
Temp
°C
Dew
Point
Rel
Hum
%
Delta-T
°C
Wind Press
QNH
hPa
Press
MSL
hPa
Rain
since 9 am
mm
Dir
 
Spd
km/h
Gust
km/h
Spd
kts
Gust
kts
27/01:30pm 24.2 19.1 0.5 21 11.0 SSE 17 24 9 13 1020.8 1020.5 0.0
27/01:00pm 24.0 20.8 2.8 25 10.2 SSE 9 19 5 10 1021.2 1020.9 0.0
27/12:30pm 22.7 17.8 2.2 26 9.7 SSE 17 22 9 12 1021.5 1021.2 0.0
27/12:00pm 22.2 17.5 3.3 29 9.1 SSE 17 22 9 12 1021.8 1021.5 0.0
27/11:30am 21.0 16.0 3.7 32 8.3 SSW 19 24 10 13 1022.0 1021.7 0.0
27/11:00am 19.7 14.5 2.6 32 7.9 S 19 26 10 14 1022.1 1021.8 0.0
27/10:30am 19.5 13.8 2.8 33 7.8 SSE 22 26 12 14 1022.4 1022.1 0.0
27/10:00am 17.8 11.9 3.7 39 6.6 S 24 32 13 17 1022.6 1022.3 0.0
27/09:30am 16.6 10.0 4.0 43 5.9 S 28 35 15 19 1022.6 1022.3 0.0
27/09:00am 15.7 9.2 4.7 48 5.2 S 28 35 15 19 1022.5 1022.2 0.0
27/08:30am 13.9 7.4 4.8 54 4.2 S 28 35 15 19 1022.6 1022.3 0.0
27/08:00am 13.1 7.1 5.5 60 3.6 S 26 35 14 19 1022.3 1022.0 0.0
27/07:30am 12.0 7.2 5.6 65 3.0 S 20 28 11 15 1022.1 1021.8 0.0
27/07:00am 10.9 6.1 5.7 70 2.4 S 20 26 11 14 1021.8 1021.5 0.0
27/06:30am 10.2 5.6 5.6 73 2.1 S 19 26 10 14 1021.7 1021.4 0.0
27/06:00am 9.8 5.2 5.6 75 1.9 S 19 28 10 15 1021.4 1021.1 0.0
27/05:30am 10.0 5.4 5.8 75 1.9 S 19 24 10 13 1021.2 1020.9 0.0
27/05:00am 10.3 5.7 5.7 73 2.1 SSW 19 26 10 14 1021.0 1020.7 0.0
27/04:30am 10.8 5.9 5.3 69 2.5 S 20 30 11 16 1020.8 1020.5 0.0
27/04:00am 11.1 5.6 5.8 70 2.5 S 24 33 13 18 1020.8 1020.5 0.0
27/03:30am 11.3 5.4 6.0 70 2.5 S 26 35 14 19 1020.7 1020.4 0.0
27/03:00am 11.6 6.2 6.5 71 2.4 S 24 35 13 19 1021.1 1020.8 0.0
27/02:30am 11.6 6.4 7.1 74 2.2 S 24 32 13 17 1021.3 1021.0 0.0
27/02:00am 11.9 6.7 7.4 74 2.2 S 24 33 13 18 1021.4 1021.1 0.0
27/01:30am 12.0 6.8 7.3 73 2.3 S 24 35 13 19 1021.8 1021.5 0.0
27/01:00am 12.4 7.7 7.9 74 2.2 S 22 33 12 18 1022.1 1021.8 0.0
27/12:30am 12.8 7.4 8.1 73 2.3 S 26 33 14 18 1022.1 1021.8 0.0
27/12:00am 13.3 8.4 8.6 73 2.4 S 24 37 13 20 1022.2 1021.9 0.0
 
Date/Time
EDT
Temp
°C
App
Temp
°C
Dew
Point
Rel
Hum
%
Delta-T
°C
Wind Press
QNH
hPa
Press
MSL
hPa
Rain
since 9 am
mm
Dir
 
Spd
km/h
Gust
km/h
Spd
kts
Gust
kts
26/11:30pm 13.9 8.8 9.3 74 2.4 S 26 33 14 18 1022.2 1021.9 0.0
26/11:00pm 14.5 9.2 9.9 74 2.4 S 28 39 15 21 1022.1 1021.8 0.0
26/10:30pm 15.3 10.8 10.1 71 2.7 S 24 32 13 17 1022.0 1021.7 0.0
26/10:00pm 15.9 12.2 10.0 68 3.1 S 20 28 11 15 1021.6 1021.3 0.0
26/09:30pm 16.7 12.8 9.4 62 3.8 S 20 28 11 15 1021.3 1021.0 0.0
26/09:00pm 17.4 13.4 9.1 58 4.3 S 20 30 11 16 1020.9 1020.6 0.0
26/08:30pm 18.3 13.5 8.8 54 5.0 S 24 32 13 17 1020.5 1020.2 0.0
26/08:00pm 19.3 14.0 8.6 50 5.6 S 26 37 14 20 1020.2 1019.9 0.0
26/07:30pm 20.3 14.7 8.6 47 6.2 S 28 37 15 20 1019.8 1019.5 0.0
26/07:00pm 21.0 15.0 8.6 45 6.5 S 30 39 16 21 1019.4 1019.1 0.0
26/06:30pm 21.7 15.6 8.2 42 7.1 S 30 39 16 21 1018.8 1018.6 0.0
26/06:00pm 23.0 16.9 8.3 39 7.8 S 30 44 16 24 1018.5 1018.3 0.0
26/05:30pm 22.9 17.0 7.4 37 8.1 S 28 39 15 21 1018.5 1018.3 0.0
26/05:00pm 23.5 17.3 8.0 37 8.2 S 30 41 16 22 1018.7 1018.5 0.0
26/04:30pm 23.7 18.8 6.9 34 8.7 S 22 32 12 17 1018.7 1018.5 0.0
26/04:20pm 23.7 17.6 6.5 33 8.9 SSW 28 46 15 25 1018.7 1018.5 0.0
26/04:00pm 24.1 17.8 5.9 31 9.3 S 28 43 15 23 1018.7 1018.5 0.0
26/03:40pm 24.0 17.8 6.3 32 9.1 SSW 28 46 15 25 1018.8 1018.6 0.0
26/03:30pm 23.2 18.2 6.5 34 8.6 SSW 22 35 12 19 1018.8 1018.6 0.0
26/03:00pm 22.6 17.2 6.4 35 8.3 SSW 24 39 13 21 1019.1 1018.9 0.0
26/02:30pm 22.0 17.9 6.3 36 8.0 S 17 35 9 19 1019.5 1019.2 0.0
26/02:00pm 21.9 16.8 6.2 36 8.0 SW 22 32 12 17 1019.8 1019.5 0.0
26/01:30pm 22.0 18.1 5.4 34 8.3 S 15 28 8 15 1020.0 1019.7 0.0
26/01:00pm 20.6 15.9 5.0 36 7.7 WSW 19 28 10 15 1020.4 1020.1 0.0
26/12:30pm 20.8 16.1 6.0 38 7.4 SSW 20 30 11 16 1020.6 1020.3 0.0
26/12:00pm 19.5 15.3 5.6 40 6.9 SW 17 30 9 16 1020.7 1020.4 0.0
26/11:30am 19.5 15.1 6.6 43 6.5 SSW 19 26 10 14 1021.0 1020.7 0.0
26/11:00am 19.1 14.6 6.2 43 6.4 SW 19 28 10 15 1021.1 1020.8 0.0
26/10:30am 18.3 15.3 6.2 45 6.0 SSW 11 19 6 10 1021.2 1020.9 0.0
26/10:00am 17.3 13.6 6.2 48 5.5 SW 15 26 8 14 1021.0 1020.7 0.0
26/09:30am 16.6 13.1 7.0 53 4.8 S 15 28 8 15 1021.0 1020.7 0.0
26/09:00am 15.7 11.3 7.5 58 4.1 S 20 24 11 13 1021.1 1020.8 0.0
26/08:30am 15.0 11.0 8.3 64 3.4 S 19 22 10 12 1020.9 1020.6 0.0
26/08:00am 13.6 9.8 7.6 67 3.0 S 17 22 9 12 1020.7 1020.4 0.0
26/07:30am 13.0 10.6 8.5 74 2.3 S 11 15 6 8 1020.6 1020.3 0.0
26/07:00am 12.0 10.0 8.5 79 1.7 SSW 9 13 5 7 1020.4 1020.1 0.0
26/06:30am 10.8 8.7 8.2 84 1.3 SSW 9 11 5 6 1020.1 1019.8 0.0
26/06:00am 10.9 9.1 8.1 83 1.4 S 7 13 4 7 1019.8 1019.5 0.0
26/05:30am 11.0 8.5 8.2 83 1.4 S 11 15 6 8 1019.6 1019.3 0.0
26/05:00am 11.1 9.0 8.3 83 1.4 S 9 13 5 7 1019.4 1019.1 0.0
26/04:30am 11.4 8.6 8.4 82 1.5 S 13 17 7 9 1019.3 1019.0 0.0
26/04:00am 11.4 8.5 8.1 80 1.6 S 13 17 7 9 1019.1 1018.9 0.0
26/03:30am 11.9 8.3 8.2 78 1.8 S 17 20 9 11 1019.3 1019.0 0.0
26/03:00am 11.5 8.5 7.8 78 1.8 S 13 17 7 9 1019.1 1018.9 0.0
26/02:30am 12.3 8.9 7.8 74 2.2 S 15 19 8 10 1019.4 1019.1 0.0
26/02:00am 12.9 9.2 7.8 71 2.5 S 17 20 9 11 1019.6 1019.3 0.0
26/01:30am 13.4 9.7 7.8 69 2.8 S 17 22 9 12 1019.7 1019.4 0.0
26/01:00am 13.6 9.9 8.0 69 2.8 S 17 20 9 11 1019.9 1019.6 0.0
26/12:30am 13.8 10.1 8.0 68 2.9 S 17 20 9 11 1019.8 1019.5 0.0
26/12:00am 14.3 10.6 7.8 65 3.2 S 17 20 9 11 1020.0 1019.7 0.0
 
Date/Time
EDT
Temp
°C
App
Temp
°C
Dew
Point
Rel
Hum
%
Delta-T
°C
Wind Press
QNH
hPa
Press
MSL
hPa
Rain
since 9 am
mm
Dir
 
Spd
km/h
Gust
km/h
Spd
kts
Gust
kts
25/11:30pm 13.4 10.4 7.8 69 2.8 S 13 17 7 9 1019.9 1019.6 0.0
25/11:00pm 14.2 14.0 9.0 71 2.6 CALM 0 0 0 0 1019.8 1019.5 0.0
25/10:30pm 14.5 14.0 8.0 65 3.3 CALM 0 0 0 0 1019.6 1019.3 0.0
25/10:00pm 15.2 13.6 8.0 62 3.6 S 6 7 3 4 1019.5 1019.2 0.0
25/09:30pm 16.4 13.9 6.5 52 4.9 S 9 11 5 6 1019.4 1019.1 0.0
25/09:00pm 17.6 15.2 6.8 49 5.4 S 9 9 5 5 1019.0 1018.8 0.0
25/08:30pm 18.9 16.6 5.7 42 6.5 SW 7 9 4 5 1018.7 1018.5 0.0
25/08:00pm 20.2 17.2 4.3 35 7.7 WSW 9 11 5 6 1018.6 1018.4 0.0
25/07:30pm 21.4 17.2 4.0 32 8.5 WSW 15 20 8 11 1018.3 1018.1 0.0
25/07:00pm 22.3 17.7 3.9 30 9.0 WSW 17 28 9 15 1018.0 1017.8 0.0
25/06:30pm 22.1 17.8 3.3 29 9.1 WSW 15 24 8 13 1017.8 1017.6 0.0
25/06:00pm 22.5 17.2 3.1 28 9.3 SSW 20 28 11 15 1017.7 1017.5 0.0
25/05:30pm 22.0 17.8 3.6 30 8.9 W 15 24 8 13 1017.8 1017.6 0.0
25/05:00pm 22.5 18.7 4.1 30 9.0 WSW 13 24 7 13 1017.9 1017.7 0.0
25/04:30pm 21.9 17.3 3.6 30 8.9 W 17 20 9 11 1018.1 1017.9 0.0
25/04:00pm 22.3 18.4 5.3 33 8.5 W 15 28 8 15 1018.2 1018.0 0.0
25/03:30pm 21.6 17.4 3.8 31 8.6 WSW 15 26 8 14 1018.4 1018.2 0.0
25/03:00pm 20.9 16.7 4.0 33 8.2 WSW 15 24 8 13 1018.5 1018.3 0.0
25/02:30pm 20.5 14.9 3.7 33 8.1 WSW 22 32 12 17 1018.8 1018.6 0.0
25/02:15pm 20.9 14.5 5.3 36 7.7 SSW 28 59 15 32 1018.8 1018.6 0.0
25/02:00pm 20.1 15.1 4.6 36 7.5 W 20 30 11 16 1018.8 1018.6 0.0
25/01:30pm 18.8 15.6 5.3 41 6.6 S 11 20 6 11 1019.1 1018.9 0.0
25/01:00pm 18.8 15.3 5.6 42 6.5 WSW 13 24 7 13 1019.4 1019.1 0.0
25/12:30pm 18.5 13.9 5.7 43 6.3 WSW 19 28 10 15 1019.6 1019.3 0.0
25/12:00pm 18.4 13.9 6.3 45 6.0 SW 19 32 10 17 1019.6 1019.3 0.0
25/11:30am 17.4 12.7 6.0 47 5.6 SSW 20 32 11 17 1019.7 1019.4 0.0
25/11:00am 16.8 11.5 6.9 52 4.9 SSW 24 35 13 19 1019.7 1019.4 0.0
25/10:30am 16.7 11.5 7.4 54 4.7 S 24 35 13 19 1019.8 1019.5 0.0
25/10:00am 14.6 9.4 7.2 61 3.6 SSW 24 33 13 18 1020.0 1019.7 0.0
25/09:30am 14.9 10.3 8.2 64 3.4 SW 22 33 12 18 1019.9 1019.6 0.0
25/09:00am 14.1 9.1 8.1 67 3.0 SW 24 32 13 17 1019.7 1019.4 11.0
25/08:30am 13.0 7.9 7.5 69 2.7 SW 24 32 13 17 1019.4 1019.1 11.0
25/08:00am 12.2 8.3 6.9 70 2.5 SW 17 26 9 14 1019.1 1018.9 11.0
25/07:30am 11.6 7.3 7.1 74 2.2 SSW 19 24 10 13 1018.6 1018.4 11.0
25/07:00am 10.6 7.7 6.7 77 1.8 SW 11 15 6 8 1018.2 1018.0 11.0
25/06:30am 9.7 6.4 6.6 81 1.5 S 13 15 7 8 1017.6 1017.4 11.0
25/06:00am 9.5 6.6 6.4 81 1.4 SW 11 15 6 8 1017.2 1017.0 11.0
25/05:30am 9.5 6.2 6.2 80 1.5 SW 13 17 7 9 1016.6 1016.4 11.0
25/05:00am 9.4 6.5 6.5 82 1.4 SW 11 13 6 7 1016.2 1016.0 11.0
25/04:30am 9.6 7.1 6.7 82 1.4 SW 9 11 5 6 1016.0 1015.8 11.0
25/04:00am 10.1 7.0 7.2 82 1.4 SW 13 15 7 8 1015.8 1015.6 11.0
25/03:30am 10.0 7.9 8.4 90 0.8 WSW 9 15 5 8 1015.6 1015.4 11.0
25/03:00am 10.1 7.9 7.9 86 1.1 SW 9 11 5 6 1015.5 1015.3 11.0
25/02:30am 11.2 8.3 8.2 82 1.5 SSW 13 19 7 10 1015.5 1015.3 11.0
25/02:00am 11.4 8.6 8.4 82 1.5 SW 13 15 7 8 1015.3 1015.0 11.0
25/01:30am 11.9 8.4 8.7 81 1.6 SSW 17 24 9 13 1015.0 1014.7 11.0
25/01:00am 12.4 8.6 9.1 80 1.7 SSW 19 24 10 13 1014.7 1014.4 11.0
25/12:30am 12.8 9.4 9.1 78 1.9 SSW 17 26 9 14 1014.7 1014.4 11.0
25/12:00am 13.0 9.1 9.3 78 1.9 SSW 20 28 11 15 1014.4 1014.1 11.0
 
Date/Time
EDT
Temp
°C
App
Temp
°C
Dew
Point
Rel
Hum
%
Delta-T
°C
Wind Press
QNH
hPa
Press
MSL
hPa
Rain
since 9 am
mm
Dir
 
Spd
km/h
Gust
km/h
Spd
kts
Gust
kts
24/11:30pm 13.6 8.5 9.1 74 2.3 S 26 35 14 19 1014.0 1013.7 11.0
24/11:00pm 14.1 9.5 9.5 74 2.4 S 24 35 13 19 1013.5 1013.2 11.0
24/10:30pm 14.5 9.2 9.7 73 2.5 S 28 37 15 20 1013.0 1012.7 11.0
24/10:00pm 15.1 10.9 11.1 77 2.1 SSW 24 30 13 16 1012.4 1012.1 11.0
24/09:30pm 15.7 7.9 11.7 77 2.2 S 44 63 24 34 1011.3 1011.0 11.0
24/09:29pm 15.8 8.2 11.8 77 2.2 S 43 63 23 34 1011.3 1011.0 11.0
24/09:16pm 17.2 10.8 13.1 77 2.3 SSW 39 50 21 27 1010.6 1010.3 11.0
24/09:00pm 17.4 15.6 13.3 77 2.3 S 15 20 8 11 1010.0 1009.8 11.0
24/08:30pm 18.0 15.3 13.5 75 2.6 S 20 30 11 16 1009.7 1009.5 11.0
24/08:00pm 18.8 17.6 17.1 90 1.0 S 19 22 10 12 1009.4 1009.2 11.0
24/07:30pm 18.8 20.9 18.0 95 0.5 W 4 9 2 5 1008.6 1008.4 11.0
24/07:00pm 18.9 19.7 18.1 95 0.5 S 11 13 6 7 1007.3 1007.0 11.0
24/06:30pm 19.2 21.2 17.9 92 0.8 NE 4 9 2 5 1006.8 1006.5 11.0
24/06:00pm 19.0 20.0 17.7 92 0.8 ENE 9 13 5 7 1006.6 1006.3 11.0
24/05:30pm 19.0 19.5 17.5 91 0.9 SE 11 15 6 8 1006.1 1005.8 11.0
24/05:00pm 19.5 20.6 17.1 86 1.5 W 7 11 4 6 1005.9 1005.6 11.0
24/04:30pm 17.5 18.1 16.9 96 0.4 N 9 13 5 7 1005.6 1005.3 11.0
24/04:00pm 17.1 17.2 16.6 97 0.3 NW 11 19 6 10 1006.7 1006.4 11.0
24/03:46pm 16.6 16.1 16.0 96 0.4 W 13 20 7 11 1006.6 1006.3 10.4
24/03:30pm 16.5 11.4 14.9 90 0.9 W 35 54 19 29 1008.6 1008.4 7.4
24/03:29pm 16.5 10.6 14.7 89 1.0 W 39 54 21 29 1008.8 1008.6 6.2
24/03:25pm 19.8 9.4 14.8 73 2.9 WSW 63 100 34 54 1008.5 1008.3 0.0
24/03:24pm 23.2 17.5 16.3 65 4.2 W 41 100 22 54 1008.0 1007.8 0.0
24/03:23pm 26.6 23.0 17.1 56 6.0 W 32 50 17 27 1007.6 1007.3 0.0
24/03:00pm 27.6 25.0 16.9 52 6.7 N 26 35 14 19 1006.1 1005.8 0.0
24/02:30pm 27.7 23.9 16.6 50 6.9 N 32 43 17 23 1006.4 1006.1 0.0
24/02:27pm 27.6 23.8 16.6 51 6.9 N 32 50 17 27 1006.5 1006.2 0.0
24/02:00pm 27.3 22.4 16.3 51 6.8 N 37 48 20 26 1006.9 1006.6 0.0
24/01:39pm 28.2 24.1 16.5 49 7.3 N 33 54 18 29 1007.1 1006.8 0.0

Other Formats:

Comma delimited format used in spreadsheet applications
http://www.bom.gov.au/fwo/IDV60801/IDV60801.94875.axf

JavaScript Object Notation format (JSON) in row-major order
http://www.bom.gov.au/fwo/IDV60801/IDV60801.94875.json